createdAt,value
2023-05-06T00:01:29.327Z,101112.38
2023-05-06T00:03:57.017Z,101101.22
2023-05-06T00:06:24.402Z,101111.25
2023-05-06T00:08:51.480Z,101109.41
2023-05-06T00:11:18.598Z,101109.47
2023-05-06T00:13:45.643Z,101101.31
2023-05-06T00:16:12.735Z,101111.66
2023-05-06T00:18:41.000Z,101113.97
2023-05-06T00:21:17.702Z,101113.59
2023-05-06T00:23:45.163Z,101111.34
2023-05-06T00:26:12.462Z,101103.38
2023-05-06T00:28:39.540Z,101103.84
2023-05-06T00:31:06.999Z,101109.53
2023-05-06T00:33:37.199Z,101103.94
2023-05-06T00:36:08.354Z,101113.47
2023-05-06T00:38:35.793Z,101109.94
2023-05-06T00:41:03.393Z,101109.09
2023-05-06T00:43:33.901Z,101110.59
2023-05-06T00:46:01.341Z,101108.47
2023-05-06T00:48:29.655Z,101105.47
2023-05-06T00:51:03.229Z,101104.72
2023-05-06T00:53:30.613Z,101099.25
2023-05-06T00:55:58.323Z,101094.88
2023-05-06T00:58:26.262Z,101089.47
2023-05-06T01:00:53.868Z,101084.00
2023-05-06T01:03:21.277Z,101087.44
2023-05-06T01:06:46.824Z,101075.59
2023-05-06T01:09:45.405Z,101073.09
2023-05-06T01:12:35.745Z,101073.50
2023-05-06T01:15:34.874Z,101066.88
2023-05-06T01:18:17.359Z,101063.06
2023-05-06T01:20:56.063Z,101053.91
2023-05-06T01:23:26.581Z,101058.94
2023-05-06T01:25:59.365Z,101062.66
2023-05-06T01:28:33.214Z,101059.75
2023-05-06T01:31:16.698Z,101058.50
2023-05-06T01:34:08.487Z,101059.50
2023-05-06T01:37:20.831Z,101053.41
2023-05-06T01:39:49.069Z,101048.78
2023-05-06T01:42:17.927Z,101051.53
2023-05-06T01:44:46.914Z,101047.25
2023-05-06T01:47:15.315Z,101051.00
2023-05-06T01:49:43.417Z,101055.16
2023-05-06T01:52:16.369Z,101051.75
2023-05-06T01:54:49.357Z,101048.31
2023-05-06T01:57:19.474Z,101050.41
2023-05-06T01:59:46.493Z,101049.13
2023-05-06T02:02:14.090Z,101049.72
2023-05-06T02:04:43.755Z,101047.59
2023-05-06T02:07:10.894Z,101039.34
2023-05-06T02:09:37.981Z,101034.78
2023-05-06T02:12:05.530Z,101043.53
2023-05-06T02:14:32.823Z,101036.63
2023-05-06T02:17:06.376Z,101031.41
2023-05-06T02:19:34.174Z,101040.31
2023-05-06T02:22:01.248Z,101034.97
2023-05-06T02:24:29.412Z,101034.16
2023-05-06T02:26:56.719Z,101021.19
2023-05-06T02:29:23.945Z,101017.53
2023-05-06T02:31:51.094Z,101024.75
2023-05-06T02:34:18.316Z,101031.41
2023-05-06T02:36:45.749Z,101017.66
2023-05-06T02:39:12.790Z,101022.78
2023-05-06T02:41:40.072Z,101023.28
2023-05-06T02:44:07.263Z,101030.81
2023-05-06T02:46:37.822Z,101026.72
2023-05-06T02:49:05.039Z,101029.56
2023-05-06T02:51:36.371Z,101033.97
2023-05-06T02:54:03.562Z,101031.94
2023-05-06T02:56:31.185Z,101027.28
2023-05-06T02:58:58.267Z,101029.03
2023-05-06T03:01:25.848Z,101029.56
2023-05-06T03:03:59.467Z,101029.53
2023-05-06T03:06:30.417Z,101034.56
2023-05-06T03:08:58.046Z,101033.19
2023-05-06T03:11:25.365Z,101028.72
2023-05-06T03:13:52.483Z,101030.06
2023-05-06T03:16:19.876Z,101022.69
2023-05-06T03:18:50.096Z,101025.78
2023-05-06T03:21:19.447Z,101018.56
2023-05-06T03:23:46.612Z,101018.06
2023-05-06T03:26:13.677Z,101028.59
2023-05-06T03:28:44.580Z,101026.09
2023-05-06T03:31:11.801Z,101019.28
2023-05-06T03:33:39.005Z,101026.81
2023-05-06T03:36:06.652Z,101026.19
2023-05-06T03:38:33.968Z,101026.84
2023-05-06T03:41:01.134Z,101020.78
2023-05-06T03:43:28.179Z,101018.00
2023-05-06T03:45:55.271Z,101009.44
2023-05-06T03:48:26.412Z,101009.31
2023-05-06T03:50:53.563Z,101011.44
2023-05-06T03:53:20.837Z,101015.72
2023-05-06T03:55:48.143Z,101012.38
2023-05-06T03:58:15.236Z,101016.75
2023-05-06T04:00:42.825Z,101016.13
2023-05-06T04:03:11.475Z,101007.41
2023-05-06T04:05:38.695Z,101013.28
2023-05-06T04:08:11.757Z,101012.22
2023-05-06T04:10:44.472Z,101015.81
2023-05-06T04:13:15.364Z,101017.78
2023-05-06T04:15:42.575Z,101014.88
2023-05-06T04:18:09.738Z,101023.69
2023-05-06T04:20:36.826Z,101016.53
2023-05-06T04:23:04.468Z,101016.19
2023-05-06T04:25:36.073Z,101010.19
2023-05-06T04:28:03.258Z,101012.69
2023-05-06T04:30:30.434Z,101010.28
2023-05-06T04:33:00.244Z,101017.47
2023-05-06T04:35:27.280Z,101022.84
2023-05-06T04:37:56.908Z,101017.75
2023-05-06T04:40:26.222Z,101028.34
2023-05-06T04:42:54.384Z,101024.00
2023-05-06T04:45:22.374Z,101018.41
2023-05-06T04:47:55.205Z,101028.44
2023-05-06T04:50:22.676Z,101033.69
2023-05-06T04:52:49.933Z,101034.47
2023-05-06T04:55:17.204Z,101040.00
2023-05-06T04:57:45.170Z,101042.50
2023-05-06T05:00:13.227Z,101044.03
2023-05-06T05:02:40.655Z,101043.94
2023-05-06T05:05:09.031Z,101055.06
2023-05-06T05:07:36.433Z,101060.25
2023-05-06T05:10:08.042Z,101060.25
2023-05-06T05:12:44.891Z,101057.06
2023-05-06T05:15:12.627Z,101055.66
2023-05-06T05:17:46.156Z,101061.94
2023-05-06T05:20:16.796Z,101066.97
2023-05-06T05:22:44.343Z,101059.81
2023-05-06T05:25:12.117Z,101065.00
2023-05-06T05:27:43.183Z,101069.69
2023-05-06T05:30:11.618Z,101070.31
2023-05-06T05:32:48.682Z,101076.09
2023-05-06T05:35:18.895Z,101065.19
2023-05-06T05:37:49.784Z,101070.66
2023-05-06T05:40:17.006Z,101071.88
2023-05-06T05:42:46.100Z,101077.47
2023-05-06T05:45:28.320Z,101067.00
2023-05-06T05:48:04.969Z,101070.47
2023-05-06T05:50:32.405Z,101072.63
2023-05-06T05:52:59.798Z,101074.19
2023-05-06T05:55:27.275Z,101066.66
2023-05-06T05:57:55.067Z,101073.78
2023-05-06T06:00:23.096Z,101078.09
2023-05-06T06:02:50.393Z,101074.94
2023-05-06T06:05:17.797Z,101081.56
2023-05-06T06:07:48.428Z,101076.56
2023-05-06T06:10:15.678Z,101078.56
2023-05-06T06:12:44.690Z,101077.31
2023-05-06T06:15:12.414Z,101081.72
2023-05-06T06:17:39.715Z,101091.47
2023-05-06T06:20:11.566Z,101094.75
2023-05-06T06:22:39.060Z,101093.09
2023-05-06T06:25:07.396Z,101092.75
2023-05-06T06:27:36.723Z,101090.81
2023-05-06T06:30:05.781Z,101090.34
2023-05-06T06:32:33.000Z,101082.84
2023-05-06T06:35:00.335Z,101087.84
2023-05-06T06:37:32.796Z,101088.97
2023-05-06T06:40:21.318Z,101090.81
2023-05-06T06:42:48.742Z,101089.78
2023-05-06T06:45:30.708Z,101097.94
2023-05-06T06:48:10.715Z,101097.28
2023-05-06T06:50:39.397Z,101099.75
2023-05-06T06:53:08.322Z,101101.38
2023-05-06T06:55:46.909Z,101103.75
2023-05-06T06:58:41.131Z,101104.00
2023-05-06T07:03:58.547Z,101102.88
2023-05-06T07:06:40.645Z,101104.38
2023-05-06T07:09:14.665Z,101099.50
2023-05-06T07:11:45.418Z,101098.97
2023-05-06T07:14:14.173Z,101099.44
2023-05-06T07:16:46.378Z,101102.22
2023-05-06T07:19:14.822Z,101096.69
2023-05-06T07:24:36.308Z,101102.94
2023-05-06T07:27:06.395Z,101090.75
2023-05-06T07:29:36.652Z,101095.78
2023-05-06T07:32:25.893Z,101097.56
2023-05-06T07:34:58.145Z,101096.91
2023-05-06T07:37:27.837Z,101100.00
2023-05-06T07:39:58.796Z,101103.78
2023-05-06T07:42:26.623Z,101105.59
2023-05-06T07:44:56.824Z,101115.81
2023-05-06T07:47:33.722Z,101117.06
2023-05-06T07:50:07.332Z,101114.56
2023-05-06T07:52:37.630Z,101117.59
2023-05-06T07:55:14.814Z,101114.88
2023-05-06T07:57:42.370Z,101111.31
2023-05-06T08:00:28.279Z,101109.59
2023-05-06T08:02:55.925Z,101113.63
2023-05-06T08:05:33.657Z,101119.28
2023-05-06T08:08:09.479Z,101122.94
2023-05-06T08:10:36.750Z,101128.66
2023-05-06T08:13:10.096Z,101124.09
2023-05-06T08:15:49.619Z,101126.56
2023-05-06T08:21:36.088Z,101124.19
2023-05-06T08:24:03.677Z,101124.59
2023-05-06T08:26:30.979Z,101127.81
2023-05-06T08:29:02.470Z,101125.94
2023-05-06T08:31:30.190Z,101128.38
2023-05-06T08:33:59.334Z,101124.38
2023-05-06T08:36:27.474Z,101126.56
2023-05-06T08:39:22.407Z,101131.41
2023-05-06T08:41:52.506Z,101136.63
2023-05-06T08:44:32.024Z,101136.19
2023-05-06T08:47:02.417Z,101147.41
2023-05-06T08:49:54.973Z,101145.72
2023-05-06T08:52:22.854Z,101150.66
2023-05-06T08:55:12.942Z,101152.19
2023-05-06T08:57:52.360Z,101146.38
2023-05-06T09:00:43.207Z,101158.34
2023-05-06T09:03:19.396Z,101160.72
2023-05-06T09:06:25.883Z,101154.81
2023-05-06T09:08:55.937Z,101161.81
2023-05-06T09:11:27.965Z,101163.50
2023-05-06T09:14:29.900Z,101160.66
2023-05-06T09:17:31.872Z,101165.72
2023-05-06T09:20:09.521Z,101170.50
2023-05-06T09:22:46.645Z,101178.59
2023-05-06T09:25:19.417Z,101171.59
2023-05-06T09:28:22.432Z,101173.16
2023-05-06T09:31:04.014Z,101182.88
2023-05-06T09:33:39.521Z,101180.41
2023-05-06T09:38:59.507Z,101186.94
2023-05-06T09:41:27.095Z,101184.44
2023-05-06T09:43:56.619Z,101192.63
2023-05-06T09:46:41.876Z,101187.28
2023-05-06T09:49:15.648Z,101181.81
2023-05-06T09:51:48.053Z,101180.41
2023-05-06T09:54:21.056Z,101184.97
2023-05-06T09:56:54.763Z,101177.66
2023-05-06T09:59:26.133Z,101182.88
2023-05-06T10:01:54.859Z,101195.78
2023-05-06T10:04:27.166Z,101191.03
2023-05-06T10:07:01.938Z,101195.78
2023-05-06T10:09:35.861Z,101194.59
2023-05-06T10:12:07.410Z,101198.03
2023-05-06T10:14:37.141Z,101201.91
2023-05-06T10:17:16.034Z,101202.53
2023-05-06T10:19:50.358Z,101205.25
2023-05-06T10:22:56.777Z,101205.06
2023-05-06T10:25:40.944Z,101206.63
2023-05-06T10:28:29.145Z,101211.31
2023-05-06T10:30:59.881Z,101213.63
2023-05-06T10:33:28.627Z,101220.09
2023-05-06T10:36:25.302Z,101223.06
2023-05-06T10:41:49.909Z,101229.97
2023-05-06T10:44:17.242Z,101225.44
2023-05-06T10:47:00.790Z,101219.22
2023-05-06T10:49:31.978Z,101222.09
2023-05-06T10:52:18.097Z,101220.41
2023-05-06T10:54:53.474Z,101215.50
2023-05-06T10:57:29.322Z,101214.56
2023-05-06T10:59:59.452Z,101230.97
2023-05-06T11:02:31.397Z,101219.94
2023-05-06T11:05:09.587Z,101223.84
2023-05-06T11:07:37.359Z,101223.84
2023-05-06T11:12:56.755Z,101230.47
2023-05-06T11:15:46.487Z,101232.25
2023-05-06T11:18:41.877Z,101231.28
2023-05-06T11:21:20.431Z,101238.81
2023-05-06T11:23:59.921Z,101235.69
2023-05-06T11:26:28.050Z,101241.47
2023-05-06T11:29:04.092Z,101252.03
2023-05-06T11:31:53.388Z,101238.25
2023-05-06T11:34:42.633Z,101245.91
2023-05-06T11:37:23.924Z,101243.94
2023-05-06T11:40:00.141Z,101260.84
2023-05-06T11:42:29.212Z,101253.19
2023-05-06T11:45:05.353Z,101252.72
2023-05-06T11:47:32.588Z,101258.59
2023-05-06T11:50:06.572Z,101263.41
2023-05-06T11:52:41.181Z,101267.09
2023-05-06T11:55:32.006Z,101269.72
2023-05-06T11:58:05.338Z,101271.34
2023-05-06T12:00:35.845Z,101271.72
2023-05-06T12:03:11.382Z,101271.72
2023-05-06T12:05:44.916Z,101275.84
2023-05-06T12:08:27.535Z,101278.88
2023-05-06T12:11:08.514Z,101278.28
2023-05-06T12:13:40.689Z,101288.84
2023-05-06T12:16:08.458Z,101289.81
2023-05-06T12:18:41.471Z,101295.06
2023-05-06T12:21:08.646Z,101293.16
2023-05-06T12:23:50.701Z,101288.44
2023-05-06T12:26:19.669Z,101295.63
2023-05-06T12:28:47.302Z,101303.50
2023-05-06T12:31:23.420Z,101296.31
2023-05-06T12:33:51.442Z,101302.06
2023-05-06T12:36:20.559Z,101304.38
2023-05-06T12:39:01.197Z,101302.69
2023-05-06T12:41:46.348Z,101314.44
2023-05-06T12:44:40.156Z,101315.06
2023-05-06T12:47:29.421Z,101316.75
2023-05-06T12:49:59.402Z,101316.16
2023-05-06T12:52:30.650Z,101323.44
2023-05-06T12:55:00.690Z,101319.44
2023-05-06T12:57:30.111Z,101329.41
2023-05-06T12:59:57.472Z,101335.88
2023-05-06T13:02:24.742Z,101332.44
2023-05-06T13:05:01.929Z,101330.47
2023-05-06T13:07:29.004Z,101330.66
2023-05-06T13:10:10.278Z,101339.47
2023-05-06T13:12:41.084Z,101346.59
2023-05-06T13:15:19.014Z,101337.59
2023-05-06T13:18:02.405Z,101338.19
2023-05-06T13:20:32.197Z,101341.78
2023-05-06T13:22:59.741Z,101337.78
2023-05-06T13:25:30.495Z,101346.28
2023-05-06T13:28:00.250Z,101347.63
2023-05-06T13:30:30.133Z,101350.16
2023-05-06T13:33:05.220Z,101343.00
2023-05-06T13:35:32.424Z,101344.41
2023-05-06T13:37:59.578Z,101352.00
2023-05-06T13:40:26.782Z,101353.09
2023-05-06T13:43:03.008Z,101351.75
2023-05-06T13:45:30.178Z,101358.09
2023-05-06T13:47:57.348Z,101350.78
2023-05-06T13:50:24.609Z,101347.28
2023-05-06T13:52:51.733Z,101352.66
2023-05-06T13:55:19.515Z,101343.84
2023-05-06T13:57:47.013Z,101346.47
2023-05-06T14:00:24.219Z,101344.69
2023-05-06T14:02:51.392Z,101340.63
2023-05-06T14:05:22.001Z,101344.56
2023-05-06T14:07:49.161Z,101348.34
2023-05-06T14:10:16.282Z,101345.84
2023-05-06T14:12:43.362Z,101341.53
2023-05-06T14:15:11.791Z,101348.78
2023-05-06T14:17:48.178Z,101344.81
2023-05-06T14:20:21.100Z,101349.31
2023-05-06T14:22:48.809Z,101347.47
2023-05-06T14:25:29.540Z,101349.72
2023-05-06T14:27:56.952Z,101347.34
2023-05-06T14:30:25.740Z,101349.78
2023-05-06T14:32:53.118Z,101342.75
2023-05-06T14:35:20.983Z,101358.84
2023-05-06T14:37:51.197Z,101355.69
2023-05-06T14:40:18.398Z,101359.56
2023-05-06T14:42:46.382Z,101361.66
2023-05-06T14:45:15.712Z,101366.44
2023-05-06T14:47:43.383Z,101365.25
2023-05-06T14:50:14.281Z,101363.13
2023-05-06T14:52:42.084Z,101370.78
2023-05-06T14:55:11.574Z,101370.25
2023-05-06T14:57:38.888Z,101366.97
2023-05-06T15:00:14.917Z,101360.91
2023-05-06T15:02:42.293Z,101365.38
2023-05-06T15:05:12.091Z,101365.84
2023-05-06T15:07:39.774Z,101374.00
2023-05-06T15:10:07.706Z,101374.00
2023-05-06T15:12:36.456Z,101368.31
2023-05-06T15:15:04.964Z,101372.44
2023-05-06T15:17:32.510Z,101373.38
2023-05-06T15:20:00.521Z,101382.81
2023-05-06T15:22:27.669Z,101376.88
2023-05-06T15:24:55.262Z,101385.84
2023-05-06T15:27:22.435Z,101385.09
2023-05-06T15:29:49.480Z,101392.00
2023-05-06T15:32:16.685Z,101386.88
2023-05-06T15:34:43.744Z,101394.75
2023-05-06T15:37:11.062Z,101394.44
2023-05-06T15:40:19.391Z,101390.16
2023-05-06T15:42:46.544Z,101382.94
2023-05-06T15:45:13.750Z,101387.53
2023-05-06T15:47:41.366Z,101381.34
2023-05-06T15:50:19.967Z,101380.53
2023-05-06T15:52:52.230Z,101389.75
2023-05-06T15:55:19.838Z,101383.06
2023-05-06T15:57:46.896Z,101379.47
2023-05-06T16:00:17.496Z,101380.66
2023-05-06T16:02:44.654Z,101372.47
2023-05-06T16:05:12.128Z,101374.59
2023-05-06T16:07:39.338Z,101386.81
2023-05-06T16:10:08.348Z,101379.13
2023-05-06T16:12:44.890Z,101382.84
2023-05-06T16:15:12.137Z,101384.81
2023-05-06T16:17:40.500Z,101380.22
2023-05-06T16:20:10.441Z,101383.88
2023-05-06T16:22:42.008Z,101387.84
2023-05-06T16:25:09.484Z,101386.00
2023-05-06T16:27:36.610Z,101391.19
2023-05-06T16:30:04.433Z,101398.13
2023-05-06T16:32:31.543Z,101398.97
2023-05-06T16:34:59.347Z,101405.78
2023-05-06T16:37:26.539Z,101404.13
2023-05-06T16:39:53.613Z,101404.63
2023-05-06T16:42:20.900Z,101407.25
2023-05-06T16:44:47.998Z,101408.97
2023-05-06T16:47:15.305Z,101406.19
2023-05-06T16:49:42.526Z,101409.78
2023-05-06T16:52:09.573Z,101417.25
2023-05-06T16:54:36.910Z,101410.69
2023-05-06T16:57:03.973Z,101417.34
2023-05-06T16:59:31.156Z,101418.69
2023-05-06T17:01:58.285Z,101421.47
2023-05-06T17:04:25.389Z,101417.97
2023-05-06T17:06:52.508Z,101422.75
2023-05-06T17:09:20.392Z,101427.00
2023-05-06T17:11:47.560Z,101429.06
2023-05-06T17:14:14.954Z,101427.72
2023-05-06T17:16:43.279Z,101427.84
2023-05-06T17:19:11.719Z,101433.75
2023-05-06T17:21:38.986Z,101441.66
2023-05-06T17:24:06.716Z,101440.94
2023-05-06T17:26:35.139Z,101437.00
2023-05-06T17:29:02.247Z,101449.22
2023-05-06T17:31:29.336Z,101452.69
2023-05-06T17:33:57.412Z,101448.66
2023-05-06T17:36:24.482Z,101444.66
2023-05-06T17:39:05.268Z,101444.31
2023-05-06T17:41:33.442Z,101451.03
2023-05-06T17:44:00.913Z,101445.88
2023-05-06T17:46:28.026Z,101440.66
2023-05-06T17:48:55.065Z,101444.00
2023-05-06T17:51:22.204Z,101450.28
2023-05-06T17:53:49.298Z,101449.84
2023-05-06T17:56:20.313Z,101445.72
2023-05-06T17:58:50.130Z,101456.47
2023-05-06T18:01:17.207Z,101454.78
2023-05-06T18:03:44.894Z,101454.69
2023-05-06T18:06:12.625Z,101459.38
2023-05-06T18:08:39.725Z,101462.84
2023-05-06T18:11:06.871Z,101473.28
2023-05-06T18:13:36.632Z,101466.09
2023-05-06T18:16:05.247Z,101475.63
2023-05-06T18:18:32.592Z,101468.31
2023-05-06T18:20:59.775Z,101467.09
2023-05-06T18:23:29.496Z,101465.19
2023-05-06T18:25:56.739Z,101476.06
2023-05-06T18:28:25.800Z,101476.81
2023-05-06T18:30:52.927Z,101468.94
2023-05-06T18:33:20.449Z,101479.72
2023-05-06T18:35:47.648Z,101473.28
2023-05-06T18:38:15.738Z,101474.38
2023-05-06T18:40:43.696Z,101476.81
2023-05-06T18:43:10.944Z,101478.03
2023-05-06T18:45:38.176Z,101480.22
2023-05-06T18:48:05.821Z,101489.25
2023-05-06T18:50:32.912Z,101493.44
2023-05-06T18:52:59.980Z,101496.13
2023-05-06T18:55:27.756Z,101499.22
2023-05-06T18:57:54.968Z,101498.13
2023-05-06T19:00:22.636Z,101496.19
2023-05-06T19:02:49.904Z,101500.50
2023-05-06T19:05:17.478Z,101499.38
2023-05-06T19:07:48.351Z,101505.53
2023-05-06T19:10:15.967Z,101500.59
2023-05-06T19:12:43.114Z,101495.00
2023-05-06T19:15:12.509Z,101501.84
2023-05-06T19:17:40.046Z,101501.69
2023-05-06T19:20:09.308Z,101504.28
2023-05-06T19:22:38.888Z,101500.38
2023-05-06T19:25:06.732Z,101505.00
2023-05-06T19:27:33.791Z,101504.06
2023-05-06T19:30:01.082Z,101504.81
2023-05-06T19:32:28.168Z,101510.50
2023-05-06T19:34:55.302Z,101507.50
2023-05-06T19:37:22.364Z,101507.63
2023-05-06T19:39:49.479Z,101507.22
2023-05-06T19:42:16.609Z,101512.84
2023-05-06T19:44:44.051Z,101506.22
2023-05-06T19:47:12.387Z,101504.81
2023-05-06T19:49:39.472Z,101505.91
2023-05-06T19:52:09.149Z,101516.09
2023-05-06T19:54:36.274Z,101510.47
2023-05-06T19:57:05.663Z,101515.34
2023-05-06T19:59:32.686Z,101512.75
2023-05-06T20:02:04.017Z,101518.81
2023-05-06T20:04:31.290Z,101520.22
2023-05-06T20:07:00.278Z,101520.56
2023-05-06T20:09:27.523Z,101519.66
2023-05-06T20:11:56.681Z,101524.78
2023-05-06T20:14:28.567Z,101519.16
2023-05-06T20:16:57.570Z,101515.50
2023-05-06T20:19:31.953Z,101515.38
2023-05-06T20:22:00.306Z,101520.81
2023-05-06T20:24:30.485Z,101514.25
2023-05-06T20:27:01.047Z,101516.25
2023-05-06T20:29:28.370Z,101518.41
2023-05-06T20:31:59.618Z,101518.28
2023-05-06T20:34:27.090Z,101521.25
2023-05-06T20:36:55.215Z,101525.72
2023-05-06T20:39:23.669Z,101528.88
2023-05-06T20:41:50.845Z,101523.03
2023-05-06T20:44:17.902Z,101528.88
2023-05-06T20:46:45.157Z,101531.31
2023-05-06T20:49:12.389Z,101526.47
2023-05-06T20:51:39.449Z,101530.19
2023-05-06T20:54:08.025Z,101532.44
2023-05-06T20:56:35.610Z,101528.50
2023-05-06T20:59:02.984Z,101531.19
2023-05-06T21:01:30.309Z,101535.91
2023-05-06T21:03:58.800Z,101537.03
2023-05-06T21:06:26.911Z,101535.22
2023-05-06T21:08:54.046Z,101538.44
2023-05-06T21:11:21.372Z,101541.66
2023-05-06T21:13:50.131Z,101529.00
2023-05-06T21:16:17.474Z,101535.84
2023-05-06T21:18:44.620Z,101537.28
2023-05-06T21:21:11.790Z,101537.59
2023-05-06T21:23:39.162Z,101542.81
2023-05-06T21:26:06.650Z,101540.09
2023-05-06T21:28:33.759Z,101534.13
2023-05-06T21:31:03.346Z,101530.94
2023-05-06T21:33:30.506Z,101540.31
2023-05-06T21:36:01.068Z,101535.44
2023-05-06T21:38:28.349Z,101534.69
2023-05-06T21:40:55.808Z,101539.88
2023-05-06T21:43:23.194Z,101534.09
2023-05-06T21:45:50.291Z,101530.59
2023-05-06T21:48:17.372Z,101538.53
2023-05-06T21:50:44.504Z,101540.09
2023-05-06T21:53:17.413Z,101541.03
2023-05-06T21:55:44.574Z,101547.00
2023-05-06T21:58:11.718Z,101543.34
2023-05-06T22:00:38.758Z,101543.63
2023-05-06T22:03:06.232Z,101541.56
2023-05-06T22:05:36.391Z,101541.00
2023-05-06T22:08:06.626Z,101539.72
2023-05-06T22:10:33.700Z,101538.88
2023-05-06T22:13:01.083Z,101541.94
2023-05-06T22:15:28.255Z,101539.25
2023-05-06T22:17:55.547Z,101539.06
2023-05-06T22:20:23.822Z,101535.59
2023-05-06T22:22:52.480Z,101542.09
2023-05-06T22:25:19.920Z,101538.44
2023-05-06T22:27:47.071Z,101545.47
2023-05-06T22:30:16.397Z,101548.47
2023-05-06T22:32:43.729Z,101546.03
2023-05-06T22:35:11.341Z,101547.91
2023-05-06T22:37:38.671Z,101547.75
2023-05-06T22:40:07.452Z,101545.91
2023-05-06T22:42:34.623Z,101553.72
2023-05-06T22:45:02.392Z,101551.47
2023-05-06T22:47:29.597Z,101551.38
2023-05-06T22:49:56.778Z,101552.22
2023-05-06T22:52:25.284Z,101557.84
2023-05-06T22:54:52.476Z,101565.28
2023-05-06T22:57:20.814Z,101558.75
2023-05-06T22:59:48.060Z,101561.75
2023-05-06T23:02:15.254Z,101558.22
2023-05-06T23:04:42.485Z,101559.00
2023-05-06T23:07:09.649Z,101563.59
2023-05-06T23:09:36.854Z,101565.78
2023-05-06T23:12:04.457Z,101564.28
2023-05-06T23:14:31.696Z,101564.75
2023-05-06T23:16:58.763Z,101574.25
2023-05-06T23:19:25.998Z,101569.38
2023-05-06T23:21:53.313Z,101572.22
2023-05-06T23:24:20.379Z,101571.72
2023-05-06T23:26:47.435Z,101571.63
2023-05-06T23:29:14.517Z,101574.63
2023-05-06T23:31:41.624Z,101567.31
2023-05-06T23:34:08.680Z,101572.44
2023-05-06T23:36:35.849Z,101567.22
2023-05-06T23:39:03.050Z,101561.53
2023-05-06T23:41:30.121Z,101562.13
2023-05-06T23:43:57.233Z,101560.94
2023-05-06T23:46:24.473Z,101562.75
2023-05-06T23:48:51.610Z,101573.50
2023-05-06T23:51:18.675Z,101579.41
2023-05-06T23:53:46.650Z,101571.91
2023-05-06T23:56:13.765Z,101571.47
2023-05-06T23:58:40.799Z,101571.41
